Stations météo

réclame
Mon MeteoGroup
Rodkallen, Suède (2188): Température de l'air & dewpoint: 15.06.2019 00:00:00 - 21.06.2019 00:00:00 (CEST)Rodkallen, Suède (2188): Vitesse du vent & gusts: 15.06.2019 00:00:00 - 21.06.2019 00:00:00 (CEST)Rodkallen, Suède (2188): Direction du vent: 15.06.2019 00:00:00 - 21.06.2019 00:00:00 (CEST)Rodkallen, Suède (2188): visibility: 15.06.2019 00:00:00 - 21.06.2019 00:00:00 (CEST)Rodkallen, Suède (2188): Quantités de précipitations: 15.06.2019 00:00:00 - 21.06.2019 00:00:00 (CEST)
Date & Time tt [°C] td [°C] ff [km/h] ff [knt] fx [km/h] fx [knt] dd vv [km] rr [mm]
21.06.2019 00:00:00 14,2 12,2 17 9 34 19 E 14 2,3
20.06.2019 23:00:00 14,6 11,9 30 16 36 19 E 50 0,0
20.06.2019 22:00:00 14,5 12,0 30 16 38 20 ENE 50 0,0
20.06.2019 21:00:00 14,7 11,8 29 16 35 19 ENE 50 0,0
20.06.2019 20:00:00 14,5 12,5 26 14 31 17 ENE 50 0,3
20.06.2019 19:00:00 14,2 12,2 19 10 27 15 ENE 39 0,6
20.06.2019 18:00:00 14,3 11,6 18 10 24 13 E 38 0,0
20.06.2019 17:00:00 14,5 11,5 17 9 22 12 E 50 0,0
20.06.2019 16:00:00 14,7 10,7 13 7 18 10 E 50 0,0
20.06.2019 15:00:00 14,4 9,6 14 8 19 10 E 50 0,0
20.06.2019 14:00:00 14,1 8,9 13 7 16 8 E 50 0,0
20.06.2019 13:00:00 13,9 10,1 10 5 14 8 SE 50 0,0
20.06.2019 12:00:00 13,6 10,9 12 6 16 9 SE 50 0,0
20.06.2019 11:00:00 13,9 10,9 13 7 20 11 SSE 49 0,0
20.06.2019 10:00:00 14,5 12,0 17 9 23 12 SSE 40 0,0
20.06.2019 09:00:00 14,8 12,3 9 5 13 7 S 42 0,0
20.06.2019 08:00:00 14,6 12,3 11 6 16 9 SSW 46 0,0
20.06.2019 07:00:00 14,5 12,4 10 5 13 7 S 43 0,0
20.06.2019 06:00:00 15,1 12,8 4 2 13 7 W 41 0,0
20.06.2019 05:00:00 14,2 12,2 6 3 11 6 WSW 40 0,0
20.06.2019 04:00:00 14,3 11,8 11 6 15 8 WSW 47 0,0
20.06.2019 03:00:00 14,0 12,2 13 7 15 8 SW 50 0,0
20.06.2019 02:00:00 14,0 12,9 13 7 16 9 SW 50 0,0
20.06.2019 01:00:00 14,1 12,7 14 8 18 10 SSW 50 0,0
20.06.2019 00:00:00 13,9 12,5 15 8 23 12 SSW 50 0,0
19.06.2019 23:00:00 14,0 11,7 19 10 26 14 SW 50 0,0
19.06.2019 22:00:00 14,4 11,0 22 12 27 14 SW 50 0,0
19.06.2019 21:00:00 14,6 11,4 18 10 26 14 SSW 50 0,0
19.06.2019 20:00:00 14,5 11,8 15 8 25 13 SSW 50 0,0
19.06.2019 19:00:00 14,5 11,8 15 8 20 11 SSW 50 0,0
19.06.2019 18:00:00 14,9 11,9 19 10 22 12 SSW 36 0,0
19.06.2019 17:00:00 15,1 11,3 16 9 22 12 SSW 39 0,0
19.06.2019 16:00:00 15,2 11,4 19 11 22 12 SSW 37 0,0
19.06.2019 15:00:00 15,0 10,6 16 8 19 10 SSW 45 0,0
19.06.2019 14:00:00 15,1 10,7 16 9 19 10 SW 46 0,0
19.06.2019 13:00:00 15,2 10,0 11 6 20 11 SSW 36 0,0
19.06.2019 12:00:00 14,3 10,9 18 10 21 11 SW 42 0,0
19.06.2019 11:00:00 13,9 10,1 4 2 12 7 E 38 0,0
19.06.2019 10:00:00 14,0 9,8 4 2 11 6 NNE 19 0,0
19.06.2019 09:00:00 14,9 9,9 9 5 16 9 NNE 38 0,0
19.06.2019 08:00:00 13,9 11,2 10 6 13 7 N 37 0,0
19.06.2019 07:00:00 14,0 11,3 7 4 21 12 NNW 36 0,1
19.06.2019 06:00:00 14,4 10,6 16 9 23 12 N 42 0,0
19.06.2019 05:00:00 13,9 9,3 13 7 23 12 NNW 48 0,0
19.06.2019 04:00:00 13,7 9,3 12 6 18 10 NW 50 0,0
19.06.2019 03:00:00 14,0 9,4 12 6 20 11 NW 50 0,0
19.06.2019 02:00:00 14,9 7,9 16 9 21 11 NW 50 0,0
19.06.2019 01:00:00 15,2 9,5 16 8 26 14 NW 50 0,0
19.06.2019 00:00:00 15,8 10,8 20 11 28 15 W 50 0,0
18.06.2019 23:00:00 16,1 10,4 23 13 28 15 W 50 0,0
18.06.2019 22:00:00 16,3 10,6 22 12 28 15 WSW 50 0,0
18.06.2019 21:00:00 16,5 10,1 22 12 30 16 WSW 47 0,0
18.06.2019 20:00:00 16,0 11,8 21 12 24 13 SSW 41 0,0
18.06.2019 19:00:00 14,7 12,0 21 11 27 14 S 28 0,0
18.06.2019 18:00:00 14,6 12,1 21 12 28 15 S 32 0,5
18.06.2019 17:00:00 15,0 11,4 11 6 40 22 SW 36 0,0
18.06.2019 16:00:00 15,1 11,1 35 19 44 24 S 50 0,0
18.06.2019 15:00:00 15,2 11,2 32 17 39 21 S 39 0,0
18.06.2019 14:00:00 14,7 11,7 29 16 35 19 S 40 0,0
18.06.2019 13:00:00 16,1 12,1 26 14 37 20 S 40 0,0
18.06.2019 12:00:00 15,9 11,7 27 15 34 18 SSW 39 0,0
18.06.2019 11:00:00 15,6 11,8 19 11 27 15 S 42 0,0
18.06.2019 10:00:00 15,4 12,2 16 9 26 14 SSW 31 0,0
18.06.2019 09:00:00 15,3 11,9 19 10 24 13 SW 29 0,0
18.06.2019 08:00:00 14,5 12,0 21 11 23 12 SSW 35 0,0
18.06.2019 07:00:00 14,9 11,9 14 8 21 11 WSW 30 0,0
18.06.2019 06:00:00 14,3 12,0 19 10 21 12 SW 38 0,0
18.06.2019 05:00:00 14,3 12,3 14 7 17 9 SW 19 0,0
18.06.2019 04:00:00 14,1 12,5 12 7 22 12 WSW 43 0,0
18.06.2019 03:00:00 14,4 12,9 14 8 17 9 WSW 21 0,0
18.06.2019 02:00:00 14,3 13,5 11 6 17 9 SW 39 -
18.06.2019 01:00:00 14,4 13,6 13 7 19 10 SSW 36 0,0
18.06.2019 00:00:00 14,3 13,7 10 6 18 10 SSW 27 0,1
17.06.2019 23:00:00 14,9 13,8 13 7 15 8 SW 28 0,4
17.06.2019 22:00:00 15,5 14,5 8 4 25 13 W 12 0,7
17.06.2019 21:00:00 14,9 13,8 20 11 28 15 SW 17 0,0
17.06.2019 20:00:00 14,8 13,0 23 12 32 18 SW 45 0,0
17.06.2019 19:00:00 13,9 11,9 10 5 16 9 SE 44 0,0
17.06.2019 18:00:00 14,8 12,7 3 2 13 7 NE 45 0,0
17.06.2019 17:00:00 14,8 12,3 9 5 18 10 SSE 42 0,0
17.06.2019 16:00:00 15,6 12,4 11 6 21 11 N 31 0,0
17.06.2019 15:00:00 14,1 11,3 8 4 19 10 S 50 0,0
17.06.2019 14:00:00 14,4 11,7 16 9 21 11 ESE 44 0,0
17.06.2019 13:00:00 14,8 12,7 16 8 19 11 E 44 0,0
17.06.2019 12:00:00 14,5 11,5 6 4 10 5 ENE 45 0,0
17.06.2019 11:00:00 15,1 10,9 8 4 13 7 ESE 30 0,0
17.06.2019 10:00:00 14,6 11,4 6 4 9 5 ESE 44 0,0
17.06.2019 09:00:00 14,3 12,0 9 5 11 6 SSE 36 0,0
17.06.2019 08:00:00 14,7 12,0 0 0 6 3 N 36 0,0
17.06.2019 07:00:00 15,0 12,0 0 0 10 5 N 41 0,0
17.06.2019 06:00:00 14,6 11,6 7 4 11 6 N 34 0,0
17.06.2019 05:00:00 13,5 11,0 5 3 8 4 NNE 37 0,0
17.06.2019 04:00:00 12,2 10,9 6 3 7 4 SSW 42 0,0
17.06.2019 03:00:00 11,9 10,1 5 3 18 10 S 43 0,0
17.06.2019 02:00:00 11,8 10,0 14 8 23 13 SSE 50 0,0
17.06.2019 01:00:00 12,1 10,0 17 9 22 12 SSE 50 0,0
17.06.2019 00:00:00 13,3 10,8 6 3 12 6 E 50 0,0
16.06.2019 23:00:00 13,3 11,0 8 5 13 7 SE 50 0,0
16.06.2019 22:00:00 13,4 10,8 10 6 18 10 SSE 50 0,0
16.06.2019 21:00:00 13,4 10,6 16 9 22 12 SE 50 0,0
16.06.2019 20:00:00 13,1 10,3 19 10 24 13 ESE 44 0,0
16.06.2019 19:00:00 14,0 10,2 18 10 23 12 ESE 43 0,0
16.06.2019 18:00:00 14,1 10,7 14 8 19 11 SE 43 0,0
16.06.2019 17:00:00 13,6 10,4 15 8 19 10 SSE 39 0,0
16.06.2019 16:00:00 14,5 10,7 17 9 21 11 S 40 0,0
16.06.2019 15:00:00 15,6 10,4 19 11 23 12 S 32 0,0
16.06.2019 14:00:00 16,1 10,4 17 9 21 12 SSE 40 0,0
16.06.2019 13:00:00 17,3 9,7 12 6 14 8 SSE 37 0,0
16.06.2019 12:00:00 18,5 9,3 8 5 10 6 SSE 43 0,0
16.06.2019 11:00:00 18,3 9,9 4 2 14 8 S 41 0,0
16.06.2019 10:00:00 19,6 6,3 13 7 15 8 N 43 0,0
16.06.2019 09:00:00 18,6 7,4 10 5 18 10 N 33 0,0
16.06.2019 08:00:00 18,0 8,6 13 7 18 10 NNW 44 0,0
16.06.2019 07:00:00 17,2 9,4 12 6 19 10 NW 37 0,0
16.06.2019 06:00:00 14,0 11,3 17 9 19 10 W 43 0,0
16.06.2019 05:00:00 13,2 10,7 16 9 21 11 WSW 39 0,0
16.06.2019 04:00:00 12,6 10,3 18 10 24 13 SW 50 0,0
16.06.2019 03:00:00 12,6 9,8 18 10 23 13 SSW 50 0,0
16.06.2019 02:00:00 13,2 9,3 22 12 29 16 SSW 50 0,0
16.06.2019 01:00:00 13,8 8,4 25 14 30 16 SSW 50 0,0
16.06.2019 00:00:00 13,3 8,6 21 12 26 14 SSW 50 0,0
15.06.2019 23:00:00 13,5 8,8 23 12 29 15 SSW 50 0,0
15.06.2019 22:00:00 13,3 9,4 21 11 27 14 SSW 50 0,0
15.06.2019 21:00:00 13,1 9,4 16 9 19 11 S 48 0,0
15.06.2019 20:00:00 13,3 9,5 16 9 19 10 SSW 47 0,0
15.06.2019 19:00:00 13,8 9,8 13 7 18 10 SSW 44 0,0
15.06.2019 18:00:00 14,1 10,1 14 8 20 11 SSW 43 0,0
15.06.2019 17:00:00 14,9 10,3 13 7 16 9 SSW 45 0,0
15.06.2019 16:00:00 15,6 11,0 16 9 19 10 SSW 41 0,0
15.06.2019 15:00:00 16,2 11,6 13 7 15 8 S 47 0,0
15.06.2019 14:00:00 16,8 11,5 10 6 13 7 S 42 0,0
15.06.2019 13:00:00 16,9 11,2 7 4 10 6 S 40 0,0
15.06.2019 12:00:00 17,0 7,6 3 2 15 8 E 36 0,0
15.06.2019 11:00:00 17,1 6,6 13 7 22 12 N 37 0,0
15.06.2019 10:00:00 16,4 7,3 18 10 23 12 N 41 0,0
15.06.2019 09:00:00 15,9 7,6 15 8 26 14 N 35 0,0
15.06.2019 08:00:00 15,4 6,9 21 12 30 16 NNE 41 0,0
15.06.2019 07:00:00 14,7 8,2 22 12 29 16 NNE 42 0,0
15.06.2019 06:00:00 14,4 10,0 16 8 22 12 N 38 0,0
15.06.2019 05:00:00 14,2 10,2 7 4 11 6 NW 36 0,0
15.06.2019 04:00:00 12,4 10,3 12 7 16 9 SW 50 0,0
15.06.2019 03:00:00 12,5 10,2 10 6 14 8 SSW 50 0,0
15.06.2019 02:00:00 14,9 4,0 12 6 15 8 NW 50 0,0
15.06.2019 01:00:00 14,8 4,8 14 7 18 10 NW 50 0,0
15.06.2019 00:00:00 14,5 5,8 11 6 16 9 NW 50 0,0

tt = Température de l'air
td = dewpoint
ff = Vitesse du vent
fx = gusts
dd = Direction du vent
vv = visibility
rr = Quantités de précipitations

stations d'obs. à proximité